sensor_id;sensor_type;location;lat;lon;timestamp;P1;durP1;ratioP1;P2;durP2;ratioP2
21022;SDS011;10669;51.076;3.714;2022-12-20T00:01:26;8.00;;;4.40;;
21022;SDS011;10669;51.076;3.714;2022-12-20T00:03:57;7.67;;;4.23;;
21022;SDS011;10669;51.076;3.714;2022-12-20T00:06:24;9.20;;;4.23;;
21022;SDS011;10669;51.076;3.714;2022-12-20T00:08:55;10.80;;;4.53;;
21022;SDS011;10669;51.076;3.714;2022-12-20T00:11:26;7.67;;;4.50;;
21022;SDS011;10669;51.076;3.714;2022-12-20T00:13:52;9.63;;;4.90;;
21022;SDS011;10669;51.076;3.714;2022-12-20T00:16:20;8.33;;;4.80;;
21022;SDS011;10669;51.076;3.714;2022-12-20T00:18:58;7.47;;;4.57;;
21022;SDS011;10669;51.076;3.714;2022-12-20T00:21:27;9.30;;;4.60;;
21022;SDS011;10669;51.076;3.714;2022-12-20T00:23:57;10.57;;;4.40;;
21022;SDS011;10669;51.076;3.714;2022-12-20T00:26:24;6.50;;;4.43;;
21022;SDS011;10669;51.076;3.714;2022-12-20T00:28:53;8.63;;;4.90;;
21022;SDS011;10669;51.076;3.714;2022-12-20T00:31:19;6.93;;;5.20;;
21022;SDS011;10669;51.076;3.714;2022-12-20T00:33:53;7.67;;;5.33;;
21022;SDS011;10669;51.076;3.714;2022-12-20T00:36:24;7.07;;;4.57;;
21022;SDS011;10669;51.076;3.714;2022-12-20T00:38:54;13.47;;;4.57;;
21022;SDS011;10669;51.076;3.714;2022-12-20T00:41:25;8.07;;;5.03;;
21022;SDS011;10669;51.076;3.714;2022-12-20T00:43:52;7.23;;;4.90;;
21022;SDS011;10669;51.076;3.714;2022-12-20T00:46:21;7.13;;;4.90;;
21022;SDS011;10669;51.076;3.714;2022-12-20T00:48:47;9.90;;;5.00;;
21022;SDS011;10669;51.076;3.714;2022-12-20T00:51:14;8.40;;;5.40;;
21022;SDS011;10669;51.076;3.714;2022-12-20T00:53:45;11.27;;;5.27;;
21022;SDS011;10669;51.076;3.714;2022-12-20T00:56:11;9.00;;;5.27;;
21022;SDS011;10669;51.076;3.714;2022-12-20T00:58:40;10.27;;;5.47;;
21022;SDS011;10669;51.076;3.714;2022-12-20T01:01:40;6.80;;;4.83;;
21022;SDS011;10669;51.076;3.714;2022-12-20T01:03:59;7.40;;;5.67;;
21022;SDS011;10669;51.076;3.714;2022-12-20T01:06:26;10.50;;;4.87;;
21022;SDS011;10669;51.076;3.714;2022-12-20T01:08:53;9.40;;;5.00;;
21022;SDS011;10669;51.076;3.714;2022-12-20T01:11:24;4.80;;;4.30;;
21022;SDS011;10669;51.076;3.714;2022-12-20T01:14:00;7.40;;;4.97;;
21022;SDS011;10669;51.076;3.714;2022-12-20T01:16:34;6.40;;;5.10;;
21022;SDS011;10669;51.076;3.714;2022-12-20T01:19:04;7.03;;;5.13;;
21022;SDS011;10669;51.076;3.714;2022-12-20T01:21:31;6.33;;;4.73;;
21022;SDS011;10669;51.076;3.714;2022-12-20T01:23:58;7.07;;;4.67;;
21022;SDS011;10669;51.076;3.714;2022-12-20T01:26:27;7.87;;;5.10;;
21022;SDS011;10669;51.076;3.714;2022-12-20T01:28:57;11.20;;;5.30;;
21022;SDS011;10669;51.076;3.714;2022-12-20T01:31:24;6.63;;;4.60;;
21022;SDS011;10669;51.076;3.714;2022-12-20T01:33:52;7.20;;;4.83;;
21022;SDS011;10669;51.076;3.714;2022-12-20T01:36:23;6.50;;;4.13;;
21022;SDS011;10669;51.076;3.714;2022-12-20T01:38:58;8.87;;;4.50;;
21022;SDS011;10669;51.076;3.714;2022-12-20T01:41:27;5.00;;;3.73;;
21022;SDS011;10669;51.076;3.714;2022-12-20T01:43:56;6.63;;;4.00;;
21022;SDS011;10669;51.076;3.714;2022-12-20T01:46:29;6.70;;;4.17;;
21022;SDS011;10669;51.076;3.714;2022-12-20T01:49:11;8.50;;;4.23;;
21022;SDS011;10669;51.076;3.714;2022-12-20T01:52:01;5.53;;;4.70;;
21022;SDS011;10669;51.076;3.714;2022-12-20T01:54:38;6.70;;;3.97;;
21022;SDS011;10669;51.076;3.714;2022-12-20T01:57:11;8.20;;;3.93;;
21022;SDS011;10669;51.076;3.714;2022-12-20T01:59:45;5.70;;;3.97;;
21022;SDS011;10669;51.076;3.714;2022-12-20T02:04:43;8.83;;;3.70;;
21022;SDS011;10669;51.076;3.714;2022-12-20T02:07:10;5.53;;;3.93;;
21022;SDS011;10669;51.076;3.714;2022-12-20T02:09:41;7.07;;;3.63;;
21022;SDS011;10669;51.076;3.714;2022-12-20T02:12:10;5.87;;;3.60;;
21022;SDS011;10669;51.076;3.714;2022-12-20T02:28:38;7.10;;;3.90;;
21022;SDS011;10669;51.076;3.714;2022-12-20T02:31:14;6.60;;;3.67;;
21022;SDS011;10669;51.076;3.714;2022-12-20T02:33:47;4.83;;;3.50;;
21022;SDS011;10669;51.076;3.714;2022-12-20T02:36:18;6.00;;;3.90;;
21022;SDS011;10669;51.076;3.714;2022-12-20T02:38:45;4.77;;;3.70;;
21022;SDS011;10669;51.076;3.714;2022-12-20T02:41:23;7.73;;;4.00;;
21022;SDS011;10669;51.076;3.714;2022-12-20T02:44:10;6.97;;;4.30;;
21022;SDS011;10669;51.076;3.714;2022-12-20T02:47:00;6.20;;;3.67;;
21022;SDS011;10669;51.076;3.714;2022-12-20T02:49:33;6.90;;;3.73;;
21022;SDS011;10669;51.076;3.714;2022-12-20T02:52:11;5.73;;;3.43;;
21022;SDS011;10669;51.076;3.714;2022-12-20T02:54:39;5.27;;;4.00;;
21022;SDS011;10669;51.076;3.714;2022-12-20T02:57:10;5.80;;;3.93;;
21022;SDS011;10669;51.076;3.714;2022-12-20T03:00:02;6.33;;;4.10;;
21022;SDS011;10669;51.076;3.714;2022-12-20T03:02:38;5.37;;;3.83;;
21022;SDS011;10669;51.076;3.714;2022-12-20T03:05:42;7.60;;;4.30;;
21022;SDS011;10669;51.076;3.714;2022-12-20T03:08:10;10.33;;;3.40;;
21022;SDS011;10669;51.076;3.714;2022-12-20T03:10:36;6.53;;;3.93;;
21022;SDS011;10669;51.076;3.714;2022-12-20T03:13:03;7.37;;;4.60;;
21022;SDS011;10669;51.076;3.714;2022-12-20T03:15:28;9.67;;;4.70;;
21022;SDS011;10669;51.076;3.714;2022-12-20T03:20:23;6.67;;;4.37;;
21022;SDS011;10669;51.076;3.714;2022-12-20T03:22:48;8.20;;;4.60;;
21022;SDS011;10669;51.076;3.714;2022-12-20T03:25:14;8.53;;;4.20;;
21022;SDS011;10669;51.076;3.714;2022-12-20T03:27:41;5.33;;;4.00;;
21022;SDS011;10669;51.076;3.714;2022-12-20T03:30:06;11.53;;;3.97;;
21022;SDS011;10669;51.076;3.714;2022-12-20T03:32:32;9.77;;;4.20;;
21022;SDS011;10669;51.076;3.714;2022-12-20T03:35:00;9.17;;;5.30;;
21022;SDS011;10669;51.076;3.714;2022-12-20T03:37:28;8.60;;;4.33;;
21022;SDS011;10669;51.076;3.714;2022-12-20T03:39:59;7.50;;;4.17;;
21022;SDS011;10669;51.076;3.714;2022-12-20T03:42:26;5.30;;;4.40;;
21022;SDS011;10669;51.076;3.714;2022-12-20T03:44:53;5.97;;;4.23;;
21022;SDS011;10669;51.076;3.714;2022-12-20T03:52:18;6.23;;;4.13;;
21022;SDS011;10669;51.076;3.714;2022-12-20T03:54:44;9.97;;;3.60;;
21022;SDS011;10669;51.076;3.714;2022-12-20T03:57:10;7.00;;;4.00;;
21022;SDS011;10669;51.076;3.714;2022-12-20T03:59:38;5.50;;;3.97;;
21022;SDS011;10669;51.076;3.714;2022-12-20T04:02:05;6.40;;;4.07;;
21022;SDS011;10669;51.076;3.714;2022-12-20T04:04:32;4.80;;;3.30;;
21022;SDS011;10669;51.076;3.714;2022-12-20T04:06:58;3.47;;;3.10;;
21022;SDS011;10669;51.076;3.714;2022-12-20T04:09:23;8.97;;;4.00;;
21022;SDS011;10669;51.076;3.714;2022-12-20T04:11:51;4.67;;;3.33;;
21022;SDS011;10669;51.076;3.714;2022-12-20T04:14:18;4.53;;;3.30;;
21022;SDS011;10669;51.076;3.714;2022-12-20T04:16:46;7.43;;;3.47;;
21022;SDS011;10669;51.076;3.714;2022-12-20T04:19:18;4.50;;;3.53;;
21022;SDS011;10669;51.076;3.714;2022-12-20T04:21:44;6.27;;;3.40;;
21022;SDS011;10669;51.076;3.714;2022-12-20T04:24:10;9.47;;;3.50;;
21022;SDS011;10669;51.076;3.714;2022-12-20T04:26:36;6.47;;;3.50;;
21022;SDS011;10669;51.076;3.714;2022-12-20T04:29:02;5.53;;;3.40;;
21022;SDS011;10669;51.076;3.714;2022-12-20T04:31:30;6.17;;;3.63;;
21022;SDS011;10669;51.076;3.714;2022-12-20T04:33:57;5.60;;;3.30;;
21022;SDS011;10669;51.076;3.714;2022-12-20T04:36:23;6.57;;;3.30;;
21022;SDS011;10669;51.076;3.714;2022-12-20T04:38:49;5.77;;;3.10;;
21022;SDS011;10669;51.076;3.714;2022-12-20T04:41:14;5.43;;;3.13;;
21022;SDS011;10669;51.076;3.714;2022-12-20T04:43:54;6.43;;;3.20;;
21022;SDS011;10669;51.076;3.714;2022-12-20T04:46:21;6.13;;;3.43;;
21022;SDS011;10669;51.076;3.714;2022-12-20T04:48:48;6.83;;;3.10;;
21022;SDS011;10669;51.076;3.714;2022-12-20T04:51:15;5.10;;;2.77;;
21022;SDS011;10669;51.076;3.714;2022-12-20T04:53:45;5.93;;;3.07;;
21022;SDS011;10669;51.076;3.714;2022-12-20T04:56:14;3.70;;;2.93;;
21022;SDS011;10669;51.076;3.714;2022-12-20T04:58:40;6.37;;;3.77;;
21022;SDS011;10669;51.076;3.714;2022-12-20T05:01:08;4.83;;;3.30;;
21022;SDS011;10669;51.076;3.714;2022-12-20T05:03:34;7.50;;;3.43;;
21022;SDS011;10669;51.076;3.714;2022-12-20T05:06:00;5.80;;;3.40;;
21022;SDS011;10669;51.076;3.714;2022-12-20T05:08:27;3.90;;;2.60;;
21022;SDS011;10669;51.076;3.714;2022-12-20T05:10:53;5.27;;;2.97;;
21022;SDS011;10669;51.076;3.714;2022-12-20T05:13:19;7.50;;;2.53;;
21022;SDS011;10669;51.076;3.714;2022-12-20T05:15:49;6.30;;;3.10;;
21022;SDS011;10669;51.076;3.714;2022-12-20T05:18:18;4.90;;;3.03;;
21022;SDS011;10669;51.076;3.714;2022-12-20T05:20:44;4.97;;;3.07;;
21022;SDS011;10669;51.076;3.714;2022-12-20T05:23:10;6.77;;;2.97;;
21022;SDS011;10669;51.076;3.714;2022-12-20T05:25:54;3.33;;;2.57;;
21022;SDS011;10669;51.076;3.714;2022-12-20T05:28:39;9.03;;;3.07;;
21022;SDS011;10669;51.076;3.714;2022-12-20T05:31:05;5.37;;;2.83;;
21022;SDS011;10669;51.076;3.714;2022-12-20T05:33:32;5.13;;;2.77;;
21022;SDS011;10669;51.076;3.714;2022-12-20T05:35:58;4.43;;;3.17;;
21022;SDS011;10669;51.076;3.714;2022-12-20T05:38:24;5.40;;;3.07;;
21022;SDS011;10669;51.076;3.714;2022-12-20T05:40:51;4.87;;;2.83;;
21022;SDS011;10669;51.076;3.714;2022-12-20T05:43:17;3.37;;;2.40;;
21022;SDS011;10669;51.076;3.714;2022-12-20T05:45:47;7.43;;;2.90;;
21022;SDS011;10669;51.076;3.714;2022-12-20T05:48:15;5.20;;;2.70;;
21022;SDS011;10669;51.076;3.714;2022-12-20T05:50:43;3.97;;;2.90;;
21022;SDS011;10669;51.076;3.714;2022-12-20T05:53:11;5.03;;;3.20;;
21022;SDS011;10669;51.076;3.714;2022-12-20T05:55:45;4.63;;;2.70;;
21022;SDS011;10669;51.076;3.714;2022-12-20T05:58:14;6.10;;;2.70;;
21022;SDS011;10669;51.076;3.714;2022-12-20T06:00:42;3.87;;;2.40;;
21022;SDS011;10669;51.076;3.714;2022-12-20T06:03:09;4.53;;;2.53;;
21022;SDS011;10669;51.076;3.714;2022-12-20T06:05:39;3.30;;;2.27;;
21022;SDS011;10669;51.076;3.714;2022-12-20T06:08:06;7.60;;;3.20;;
21022;SDS011;10669;51.076;3.714;2022-12-20T06:10:32;6.07;;;2.73;;
21022;SDS011;10669;51.076;3.714;2022-12-20T06:13:02;5.37;;;2.60;;
21022;SDS011;10669;51.076;3.714;2022-12-20T06:15:28;4.33;;;2.90;;
21022;SDS011;10669;51.076;3.714;2022-12-20T06:20:24;5.20;;;2.57;;
21022;SDS011;10669;51.076;3.714;2022-12-20T06:22:49;3.87;;;2.53;;
21022;SDS011;10669;51.076;3.714;2022-12-20T06:25:16;6.00;;;3.47;;
21022;SDS011;10669;51.076;3.714;2022-12-20T06:27:45;6.37;;;2.97;;
21022;SDS011;10669;51.076;3.714;2022-12-20T06:30:11;3.33;;;2.30;;
21022;SDS011;10669;51.076;3.714;2022-12-20T06:32:38;4.47;;;2.87;;
21022;SDS011;10669;51.076;3.714;2022-12-20T06:35:04;5.43;;;2.80;;
21022;SDS011;10669;51.076;3.714;2022-12-20T06:37:32;4.63;;;2.50;;
21022;SDS011;10669;51.076;3.714;2022-12-20T06:40:04;3.30;;;2.30;;
21022;SDS011;10669;51.076;3.714;2022-12-20T06:42:34;5.17;;;2.60;;
21022;SDS011;10669;51.076;3.714;2022-12-20T06:45:00;7.80;;;2.60;;
21022;SDS011;10669;51.076;3.714;2022-12-20T06:47:26;3.53;;;2.40;;
21022;SDS011;10669;51.076;3.714;2022-12-20T06:49:51;5.90;;;3.03;;
21022;SDS011;10669;51.076;3.714;2022-12-20T06:52:19;8.40;;;2.40;;
21022;SDS011;10669;51.076;3.714;2022-12-20T06:54:45;6.80;;;2.60;;
21022;SDS011;10669;51.076;3.714;2022-12-20T06:57:10;4.90;;;2.70;;
21022;SDS011;10669;51.076;3.714;2022-12-20T06:59:38;5.67;;;2.80;;
21022;SDS011;10669;51.076;3.714;2022-12-20T07:02:06;6.13;;;2.83;;
21022;SDS011;10669;51.076;3.714;2022-12-20T07:04:34;7.63;;;3.00;;
21022;SDS011;10669;51.076;3.714;2022-12-20T07:07:02;5.40;;;3.20;;
21022;SDS011;10669;51.076;3.714;2022-12-20T07:09:30;5.33;;;2.80;;
21022;SDS011;10669;51.076;3.714;2022-12-20T07:11:55;4.40;;;2.67;;
21022;SDS011;10669;51.076;3.714;2022-12-20T07:14:22;3.40;;;2.50;;
21022;SDS011;10669;51.076;3.714;2022-12-20T07:16:48;3.57;;;2.67;;
21022;SDS011;10669;51.076;3.714;2022-12-20T07:19:16;6.17;;;3.17;;
21022;SDS011;10669;51.076;3.714;2022-12-20T07:21:42;5.67;;;3.30;;
21022;SDS011;10669;51.076;3.714;2022-12-20T07:24:08;8.20;;;2.87;;
21022;SDS011;10669;51.076;3.714;2022-12-20T07:26:36;5.07;;;3.27;;
21022;SDS011;10669;51.076;3.714;2022-12-20T07:29:02;6.93;;;4.07;;
21022;SDS011;10669;51.076;3.714;2022-12-20T07:31:28;6.47;;;3.73;;
21022;SDS011;10669;51.076;3.714;2022-12-20T07:33:55;7.30;;;3.60;;
21022;SDS011;10669;51.076;3.714;2022-12-20T07:36:22;6.03;;;3.20;;
21022;SDS011;10669;51.076;3.714;2022-12-20T07:38:49;7.70;;;3.60;;
21022;SDS011;10669;51.076;3.714;2022-12-20T07:41:15;6.03;;;3.63;;
21022;SDS011;10669;51.076;3.714;2022-12-20T07:43:44;14.00;;;4.00;;
21022;SDS011;10669;51.076;3.714;2022-12-20T07:46:10;9.27;;;4.10;;
21022;SDS011;10669;51.076;3.714;2022-12-20T07:48:42;9.03;;;4.00;;
21022;SDS011;10669;51.076;3.714;2022-12-20T07:51:11;8.47;;;3.70;;
21022;SDS011;10669;51.076;3.714;2022-12-20T07:53:45;7.23;;;3.60;;
21022;SDS011;10669;51.076;3.714;2022-12-20T07:58:45;8.20;;;3.57;;
21022;SDS011;10669;51.076;3.714;2022-12-20T08:01:12;10.27;;;4.13;;
21022;SDS011;10669;51.076;3.714;2022-12-20T08:03:46;7.77;;;3.83;;
21022;SDS011;10669;51.076;3.714;2022-12-20T08:06:16;7.73;;;3.83;;
21022;SDS011;10669;51.076;3.714;2022-12-20T08:08:45;9.97;;;3.80;;
21022;SDS011;10669;51.076;3.714;2022-12-20T08:11:15;7.13;;;3.40;;
21022;SDS011;10669;51.076;3.714;2022-12-20T08:13:48;10.10;;;4.10;;
21022;SDS011;10669;51.076;3.714;2022-12-20T08:16:17;6.60;;;3.50;;
21022;SDS011;10669;51.076;3.714;2022-12-20T08:21:38;11.57;;;4.40;;
21022;SDS011;10669;51.076;3.714;2022-12-20T08:24:04;8.67;;;3.67;;
21022;SDS011;10669;51.076;3.714;2022-12-20T08:26:42;7.77;;;3.40;;
21022;SDS011;10669;51.076;3.714;2022-12-20T08:29:08;8.43;;;3.63;;
21022;SDS011;10669;51.076;3.714;2022-12-20T08:31:38;4.93;;;3.50;;
21022;SDS011;10669;51.076;3.714;2022-12-20T08:34:07;5.20;;;3.10;;
21022;SDS011;10669;51.076;3.714;2022-12-20T08:39:05;5.30;;;3.47;;
21022;SDS011;10669;51.076;3.714;2022-12-20T08:41:32;5.97;;;3.63;;
21022;SDS011;10669;51.076;3.714;2022-12-20T08:43:59;5.17;;;3.33;;
21022;SDS011;10669;51.076;3.714;2022-12-20T08:46:25;5.73;;;3.57;;
21022;SDS011;10669;51.076;3.714;2022-12-20T08:48:51;8.27;;;3.87;;
21022;SDS011;10669;51.076;3.714;2022-12-20T08:51:18;5.83;;;3.03;;
21022;SDS011;10669;51.076;3.714;2022-12-20T08:53:44;7.30;;;4.17;;
21022;SDS011;10669;51.076;3.714;2022-12-20T08:56:15;10.30;;;3.43;;
21022;SDS011;10669;51.076;3.714;2022-12-20T08:58:42;7.23;;;3.47;;
21022;SDS011;10669;51.076;3.714;2022-12-20T09:01:11;4.63;;;3.23;;
21022;SDS011;10669;51.076;3.714;2022-12-20T09:03:40;11.43;;;3.80;;
21022;SDS011;10669;51.076;3.714;2022-12-20T09:06:08;4.53;;;3.77;;
21022;SDS011;10669;51.076;3.714;2022-12-20T09:08:38;8.93;;;4.03;;
21022;SDS011;10669;51.076;3.714;2022-12-20T09:11:05;7.80;;;3.97;;
21022;SDS011;10669;51.076;3.714;2022-12-20T09:16:03;7.00;;;4.40;;
21022;SDS011;10669;51.076;3.714;2022-12-20T09:18:29;7.80;;;4.20;;
21022;SDS011;10669;51.076;3.714;2022-12-20T09:20:59;6.47;;;4.20;;
21022;SDS011;10669;51.076;3.714;2022-12-20T09:23:29;12.10;;;5.83;;
21022;SDS011;10669;51.076;3.714;2022-12-20T09:26:18;10.80;;;4.70;;
21022;SDS011;10669;51.076;3.714;2022-12-20T09:28:44;10.27;;;4.57;;
21022;SDS011;10669;51.076;3.714;2022-12-20T09:31:13;6.20;;;4.03;;
21022;SDS011;10669;51.076;3.714;2022-12-20T09:33:40;10.17;;;4.53;;
21022;SDS011;10669;51.076;3.714;2022-12-20T09:36:10;11.43;;;4.93;;
21022;SDS011;10669;51.076;3.714;2022-12-20T09:38:47;9.47;;;5.67;;
21022;SDS011;10669;51.076;3.714;2022-12-20T09:44:11;9.23;;;4.87;;
21022;SDS011;10669;51.076;3.714;2022-12-20T09:46:52;6.90;;;4.00;;
21022;SDS011;10669;51.076;3.714;2022-12-20T09:49:22;9.57;;;4.87;;
21022;SDS011;10669;51.076;3.714;2022-12-20T10:00:42;7.30;;;4.50;;
21022;SDS011;10669;51.076;3.714;2022-12-20T10:03:12;13.67;;;4.70;;
21022;SDS011;10669;51.076;3.714;2022-12-20T10:06:03;10.00;;;4.77;;
21022;SDS011;10669;51.076;3.714;2022-12-20T10:08:56;8.87;;;5.33;;
21022;SDS011;10669;51.076;3.714;2022-12-20T10:22:24;11.63;;;5.20;;
21022;SDS011;10669;51.076;3.714;2022-12-20T10:25:17;14.23;;;6.60;;
21022;SDS011;10669;51.076;3.714;2022-12-20T10:27:45;11.70;;;5.73;;
21022;SDS011;10669;51.076;3.714;2022-12-20T10:32:48;9.57;;;6.50;;
21022;SDS011;10669;51.076;3.714;2022-12-20T10:35:22;10.73;;;6.00;;
21022;SDS011;10669;51.076;3.714;2022-12-20T10:37:56;12.00;;;6.47;;
21022;SDS011;10669;51.076;3.714;2022-12-20T10:43:18;10.00;;;5.53;;
21022;SDS011;10669;51.076;3.714;2022-12-20T10:46:00;13.33;;;7.20;;
21022;SDS011;10669;51.076;3.714;2022-12-20T10:48:38;16.40;;;7.43;;
21022;SDS011;10669;51.076;3.714;2022-12-20T10:53:48;10.63;;;6.90;;
21022;SDS011;10669;51.076;3.714;2022-12-20T10:56:23;13.70;;;7.10;;
21022;SDS011;10669;51.076;3.714;2022-12-20T11:01:32;14.67;;;7.80;;
21022;SDS011;10669;51.076;3.714;2022-12-20T11:04:01;15.63;;;7.83;;
21022;SDS011;10669;51.076;3.714;2022-12-20T11:09:24;14.70;;;7.60;;
21022;SDS011;10669;51.076;3.714;2022-12-20T11:12:00;11.27;;;7.43;;
21022;SDS011;10669;51.076;3.714;2022-12-20T11:14:29;12.13;;;7.27;;
21022;SDS011;10669;51.076;3.714;2022-12-20T11:16:57;12.30;;;7.23;;
21022;SDS011;10669;51.076;3.714;2022-12-20T11:19:30;16.53;;;7.97;;
21022;SDS011;10669;51.076;3.714;2022-12-20T11:36:20;9.33;;;7.40;;
21022;SDS011;10669;51.076;3.714;2022-12-20T11:47:40;12.43;;;8.73;;
21022;SDS011;10669;51.076;3.714;2022-12-20T11:53:38;17.90;;;9.53;;
21022;SDS011;10669;51.076;3.714;2022-12-20T11:56:11;13.33;;;8.83;;
21022;SDS011;10669;51.076;3.714;2022-12-20T12:01:23;16.70;;;10.00;;
21022;SDS011;10669;51.076;3.714;2022-12-20T12:04:01;13.27;;;9.30;;
21022;SDS011;10669;51.076;3.714;2022-12-20T12:06:43;14.60;;;9.80;;
21022;SDS011;10669;51.076;3.714;2022-12-20T12:09:19;18.20;;;9.77;;
21022;SDS011;10669;51.076;3.714;2022-12-20T12:12:32;15.40;;;11.63;;
21022;SDS011;10669;51.076;3.714;2022-12-20T12:17:52;15.37;;;10.90;;
21022;SDS011;10669;51.076;3.714;2022-12-20T12:23:04;19.90;;;10.67;;
21022;SDS011;10669;51.076;3.714;2022-12-20T12:25:43;12.10;;;9.80;;
21022;SDS011;10669;51.076;3.714;2022-12-20T12:28:11;15.90;;;9.53;;
21022;SDS011;10669;51.076;3.714;2022-12-20T12:30:40;11.60;;;9.83;;
21022;SDS011;10669;51.076;3.714;2022-12-20T12:33:18;15.83;;;10.40;;
21022;SDS011;10669;51.076;3.714;2022-12-20T12:38:53;16.63;;;9.97;;
21022;SDS011;10669;51.076;3.714;2022-12-20T12:47:05;14.60;;;10.47;;
21022;SDS011;10669;51.076;3.714;2022-12-20T12:49:40;14.13;;;9.97;;
21022;SDS011;10669;51.076;3.714;2022-12-20T12:52:24;14.03;;;9.70;;
21022;SDS011;10669;51.076;3.714;2022-12-20T12:54:54;14.03;;;8.53;;
21022;SDS011;10669;51.076;3.714;2022-12-20T12:57:19;15.30;;;9.57;;
21022;SDS011;10669;51.076;3.714;2022-12-20T12:59:46;14.10;;;9.67;;
21022;SDS011;10669;51.076;3.714;2022-12-20T13:07:40;17.70;;;9.67;;
21022;SDS011;10669;51.076;3.714;2022-12-20T13:12:46;12.80;;;9.13;;
21022;SDS011;10669;51.076;3.714;2022-12-20T13:17:51;14.57;;;9.20;;
21022;SDS011;10669;51.076;3.714;2022-12-20T13:25:29;17.93;;;10.57;;
21022;SDS011;10669;51.076;3.714;2022-12-20T13:28:41;17.93;;;10.67;;
21022;SDS011;10669;51.076;3.714;2022-12-20T13:30:49;19.33;;;11.23;;
21022;SDS011;10669;51.076;3.714;2022-12-20T13:43:46;15.27;;;8.90;;
21022;SDS011;10669;51.076;3.714;2022-12-20T13:46:20;16.20;;;10.37;;
21022;SDS011;10669;51.076;3.714;2022-12-20T13:49:04;20.00;;;9.80;;
21022;SDS011;10669;51.076;3.714;2022-12-20T13:51:36;16.20;;;10.83;;
21022;SDS011;10669;51.076;3.714;2022-12-20T13:54:04;18.33;;;11.33;;
21022;SDS011;10669;51.076;3.714;2022-12-20T13:56:34;11.97;;;9.33;;
21022;SDS011;10669;51.076;3.714;2022-12-20T13:59:19;14.40;;;10.03;;
21022;SDS011;10669;51.076;3.714;2022-12-20T14:01:51;14.37;;;10.20;;
21022;SDS011;10669;51.076;3.714;2022-12-20T14:04:19;18.00;;;9.70;;
21022;SDS011;10669;51.076;3.714;2022-12-20T14:06:55;14.17;;;9.70;;
21022;SDS011;10669;51.076;3.714;2022-12-20T14:09:36;15.43;;;9.37;;
21022;SDS011;10669;51.076;3.714;2022-12-20T14:12:11;14.73;;;10.10;;
21022;SDS011;10669;51.076;3.714;2022-12-20T14:14:47;16.37;;;9.63;;
21022;SDS011;10669;51.076;3.714;2022-12-20T14:17:29;12.83;;;9.67;;
21022;SDS011;10669;51.076;3.714;2022-12-20T14:20:13;16.63;;;9.90;;
21022;SDS011;10669;51.076;3.714;2022-12-20T14:23:23;13.23;;;9.50;;
21022;SDS011;10669;51.076;3.714;2022-12-20T14:28:52;12.70;;;10.20;;
21022;SDS011;10669;51.076;3.714;2022-12-20T14:31:06;16.57;;;10.53;;
21022;SDS011;10669;51.076;3.714;2022-12-20T14:33:47;15.90;;;12.07;;
21022;SDS011;10669;51.076;3.714;2022-12-20T14:38:40;15.33;;;12.00;;
21022;SDS011;10669;51.076;3.714;2022-12-20T14:43:55;17.87;;;11.87;;
21022;SDS011;10669;51.076;3.714;2022-12-20T14:46:25;20.47;;;13.03;;
21022;SDS011;10669;51.076;3.714;2022-12-20T14:51:41;23.10;;;15.23;;
21022;SDS011;10669;51.076;3.714;2022-12-20T14:54:17;17.90;;;14.27;;
21022;SDS011;10669;51.076;3.714;2022-12-20T14:56:48;26.10;;;13.50;;
21022;SDS011;10669;51.076;3.714;2022-12-20T14:59:16;21.80;;;13.70;;
21022;SDS011;10669;51.076;3.714;2022-12-20T15:01:51;19.33;;;15.77;;
21022;SDS011;10669;51.076;3.714;2022-12-20T15:04:21;22.40;;;14.40;;
21022;SDS011;10669;51.076;3.714;2022-12-20T15:06:49;24.20;;;14.33;;
21022;SDS011;10669;51.076;3.714;2022-12-20T15:09:19;24.90;;;14.83;;
21022;SDS011;10669;51.076;3.714;2022-12-20T15:11:45;22.17;;;13.93;;
21022;SDS011;10669;51.076;3.714;2022-12-20T15:16:52;21.33;;;14.27;;
21022;SDS011;10669;51.076;3.714;2022-12-20T15:19:21;18.80;;;13.60;;
21022;SDS011;10669;51.076;3.714;2022-12-20T15:21:49;20.57;;;14.80;;
21022;SDS011;10669;51.076;3.714;2022-12-20T15:24:19;23.27;;;14.93;;
21022;SDS011;10669;51.076;3.714;2022-12-20T15:26:49;23.23;;;14.47;;
21022;SDS011;10669;51.076;3.714;2022-12-20T15:31:46;18.33;;;13.33;;
21022;SDS011;10669;51.076;3.714;2022-12-20T15:34:35;20.13;;;14.70;;
21022;SDS011;10669;51.076;3.714;2022-12-20T15:37:09;26.03;;;17.27;;
21022;SDS011;10669;51.076;3.714;2022-12-20T15:39:39;20.80;;;16.33;;
21022;SDS011;10669;51.076;3.714;2022-12-20T15:42:05;22.37;;;15.23;;
21022;SDS011;10669;51.076;3.714;2022-12-20T15:44:32;21.00;;;14.20;;
21022;SDS011;10669;51.076;3.714;2022-12-20T15:47:01;20.90;;;16.57;;
21022;SDS011;10669;51.076;3.714;2022-12-20T15:49:30;21.47;;;14.60;;
21022;SDS011;10669;51.076;3.714;2022-12-20T15:51:59;24.50;;;15.60;;
21022;SDS011;10669;51.076;3.714;2022-12-20T15:54:29;21.17;;;15.20;;
21022;SDS011;10669;51.076;3.714;2022-12-20T15:57:03;22.37;;;16.87;;
21022;SDS011;10669;51.076;3.714;2022-12-20T15:59:32;22.93;;;15.50;;
21022;SDS011;10669;51.076;3.714;2022-12-20T16:02:01;26.13;;;16.13;;
21022;SDS011;10669;51.076;3.714;2022-12-20T16:04:28;21.93;;;16.60;;
21022;SDS011;10669;51.076;3.714;2022-12-20T16:06:53;25.63;;;18.13;;
21022;SDS011;10669;51.076;3.714;2022-12-20T16:09:20;24.73;;;17.37;;
21022;SDS011;10669;51.076;3.714;2022-12-20T16:11:49;25.97;;;18.20;;
21022;SDS011;10669;51.076;3.714;2022-12-20T16:16:50;27.57;;;19.77;;
21022;SDS011;10669;51.076;3.714;2022-12-20T16:19:16;28.13;;;18.07;;
21022;SDS011;10669;51.076;3.714;2022-12-20T16:21:48;26.40;;;18.37;;
21022;SDS011;10669;51.076;3.714;2022-12-20T16:24:21;25.37;;;20.00;;
21022;SDS011;10669;51.076;3.714;2022-12-20T16:26:48;26.50;;;20.33;;
21022;SDS011;10669;51.076;3.714;2022-12-20T16:29:16;31.43;;;21.20;;
21022;SDS011;10669;51.076;3.714;2022-12-20T16:31:48;27.47;;;19.57;;
21022;SDS011;10669;51.076;3.714;2022-12-20T16:34:16;24.23;;;18.43;;
21022;SDS011;10669;51.076;3.714;2022-12-20T16:36:43;27.43;;;19.00;;
21022;SDS011;10669;51.076;3.714;2022-12-20T16:39:10;24.57;;;20.50;;
21022;SDS011;10669;51.076;3.714;2022-12-20T16:41:36;28.13;;;19.70;;
21022;SDS011;10669;51.076;3.714;2022-12-20T16:44:05;31.80;;;22.50;;
21022;SDS011;10669;51.076;3.714;2022-12-20T16:46:32;30.83;;;21.27;;
21022;SDS011;10669;51.076;3.714;2022-12-20T16:48:59;33.67;;;22.17;;
21022;SDS011;10669;51.076;3.714;2022-12-20T16:51:41;31.97;;;20.93;;
21022;SDS011;10669;51.076;3.714;2022-12-20T16:54:19;31.10;;;23.17;;
21022;SDS011;10669;51.076;3.714;2022-12-20T16:56:46;29.67;;;22.20;;
21022;SDS011;10669;51.076;3.714;2022-12-20T16:59:15;32.47;;;22.67;;
21022;SDS011;10669;51.076;3.714;2022-12-20T17:01:40;31.37;;;21.13;;
21022;SDS011;10669;51.076;3.714;2022-12-20T17:04:08;34.33;;;22.17;;
21022;SDS011;10669;51.076;3.714;2022-12-20T17:06:38;36.13;;;24.13;;
21022;SDS011;10669;51.076;3.714;2022-12-20T17:09:03;33.77;;;25.10;;
21022;SDS011;10669;51.076;3.714;2022-12-20T17:11:29;33.83;;;24.00;;
21022;SDS011;10669;51.076;3.714;2022-12-20T17:13:56;35.13;;;23.40;;
21022;SDS011;10669;51.076;3.714;2022-12-20T17:16:22;36.50;;;22.43;;
21022;SDS011;10669;51.076;3.714;2022-12-20T17:21:23;37.83;;;23.63;;
21022;SDS011;10669;51.076;3.714;2022-12-20T17:24:02;38.90;;;27.63;;
21022;SDS011;10669;51.076;3.714;2022-12-20T17:26:35;36.20;;;24.30;;
21022;SDS011;10669;51.076;3.714;2022-12-20T17:31:35;34.63;;;23.37;;
21022;SDS011;10669;51.076;3.714;2022-12-20T17:36:56;35.83;;;24.00;;
21022;SDS011;10669;51.076;3.714;2022-12-20T17:39:22;37.10;;;23.07;;
21022;SDS011;10669;51.076;3.714;2022-12-20T17:41:49;36.23;;;23.17;;
21022;SDS011;10669;51.076;3.714;2022-12-20T17:44:17;40.53;;;24.80;;
21022;SDS011;10669;51.076;3.714;2022-12-20T17:46:44;35.53;;;22.50;;